Wednesday, May 04, 2016
17:22 UTC
  |  Log In   |  Register Free
Airport Search:

Skyway Estates Airport
(60G)

Skyway Estates Airport Diagram
No Airport Diagram Available

FAA data valid effective Mar 31 2016 - May 26 2016 (unless otherwise noted).

 
 
 
 
 
 
 
 
 
 
 
 
 
 
Current Aviation Weather for 60G

Weather Summary


Current weather conditions are not available for 60G - The nearest NOAA weather station is at FPK, (7.1 nm SW from 60G)

The most recent METAR observation for 60G was updated at: 12:55 UTC
METAR for 60G is not available. Closest METAR is for KTEW 10.1 nm NW
KTEW  (10.1 nm NW)   (most recent observation was updated at 41:71 UTC)
041715Z AUTO 11004KT 10SM SCT021 BKN031 OVC049 11/09 A2954 RMK AO2 T01110088

KJXN  (21.2 nm NW)   (most recent observation was updated at 41:65 UTC)
041656Z 21008KT 10SM -RA FEW016 SCT029 OVC055 10/08 A2955 RMK AO2 SLP007 P0002 T01000083

TAF for 60G is not available.
KLAN  (12.1 nm SW)   (most recent observation was updatred at 41:50 UTC)
AMD 041508Z 0415/0512 32008KT 4SM -RA BR OVC012 TEMPO 0416/0420 1 1/2SM RA BR OVC008 FM050500 36009KT P6SM OVC007 FM050700 36008KT P6SM OVC025


KJXN  (21.2 nm NW)   (most recent observation was updatred at 41:50 UTC)
AMD 041509Z 0415/0512 28006KT 4SM -RA OVC025 TEMPO 0416/0420 2SM -RA BR OVC015 FM042000 35008G15KT 4SM -RA BR OVC015 FM050200 01006KT 4SM -RA BR OVC007 FM050600 01004KT P6SM OVC015 FM050700 02005KT P6SM OVC025 FM050800 36007KT P6SM OVC050


KBTL  (31.3 nm NE)   (most recent observation was updatred at 41:50 UTC)
AMD 041506Z 0415/0512 32008KT 4SM -RA BR OVC012 TEMPO 0416/0420 1 1/2SM RA BR OVC008 FM050500 36009KT P6SM OVC007 FM050700 36008KT P6SM OVC025
GlobalAir.com is loading additional information.
 Current Weather at FPK
50.0 F° (9.8 C°)

West winds at 6.9 mph
Pressure:
29.54 in
Humidity:
90%
Wind:
West at 6.9 mph
Dew Point:
46.8 F° (8.2 C°)
Visibility:
5.00 mi
60G NOAA Radar




Find All Airport Services Find A Hotel Find A Rental Car Find A Golf Course Find A Restaurant $100 Hamburger



Airport Weather Forecast for 60G

Translated METAR for KFPK (1715 UTC)
METAR:
KFPK 041715Z AUTO 33007G15KT 10SM -RA SCT007 BKN018 OVC026 08/07 A2954 RMK AO2 T00810068
Conditions at:
KFPK (Fitch H Beach, MI) observed 1715 UTC 04 May 2016
Temperature:
8°C (46.4°F)
Dewpoint:
7°C (44.6°F) [RH = 93.4]
Pressure:
29.54 inches Hg (1000.3 mb)
Winds:
from the NNW (330 degrees) at 8.1 mph (7 knots: 3.6 m/s)
gusting to 17.3 mph (15 knots: 7.7 m/s)
Visibility:
10 mile(s)
Ceiling:
1,800 feet AGL
Clouds:
Scattered Clouds at 700 feet AGL
Broken Cloud Cover at 1,800 feet AGL
Overcast Skies at 2,600 feet AGL
Remarks:
site is un-manned
site is automated and HAS a precipitation sensor

Translated TAF for KLAN (Capital Region Intl, MI) (1508 UTC)
TAF text:
KLAN 041508Z 0415/0512 32008KT 4SM -RA BR OVC012
Forecast period:
Wednesday May 04 2016 15:00 UTC - Thursday May 05 2016 12:00 UTC
Forecast type:
FROM: standard forecast or significant change
Winds:
from the NW (320 degrees) at 9.2 mph (8 knots: 4.1 m/s)
Visibility:
4 mile(s) (6.4 km)
Ceiling:
1,200 feet AGL
Clouds:
Overcast Skies at 1,200 feet AGL
Weather:
Light Rain
TAF text:
0416/0420 1 1/2SM RA BR OVC008
Forecast period:
Thursday May 05 2016 16:00 UTC - Thursday May 05 2016 20:00 UTC
Forecast type:
FROM: standard forecast or significant change
Winds:
Visibility:
1.5 mile(s) (2.4 km)
Ceiling:
800 feet AGL
Clouds:
Overcast Skies at 800 feet AGL
Weather:
Moderate Rain
TAF text:
FM050500 36009KT P6SM OVC007
Forecast period:
Thursday May 05 2016 05:00 UTC - Thursday May 05 2016 07:00 UTC
Forecast type:
FROM: standard forecast or significant change
Winds:
from the N (360 degrees) at 10.4 mph (9 knots: 4.6 m/s)
Visibility:
6 or more mile(s) (9.7+ km)
Ceiling:
700 feet AGL
Clouds:
Overcast Skies at 700 feet AGL
Weather:
no significant weather observed at this time
TAF text:
FM050700 36008KT P6SM OVC025
Forecast period:
Thursday May 05 2016 07:00 UTC - Thursday May 05 2016 12:00 UTC
Forecast type:
FROM: standard forecast or significant change
Winds:
from the N (360 degrees) at 9.2 mph (8 knots: 4.1 m/s)
Visibility:
6 or more mile(s) (9.7+ km)
Ceiling:
2,500 feet AGL
Clouds:
Overcast Skies at 2,500 feet AGL
Weather:
no significant weather observed at this time
FBO's on the Field
FBO Company Facility Photos Services Transportation Aviation Fuel Prices: Prices include tax
Catering Weather Repair Courtesy Rental Type 100LL JetA JetA+ MOGAS 8087
 
Add another FBO Facility Photos Catering Weather Repair Courtesy Rental Type 100LL JetA JetA+ MOGAS 8087
Services Transportation Aviation Fuel Prices: Prices include tax
There are no FBO's currently reporting fuel at 60G. List your FBO now


model-print
model-print
model-print
model-print